Time;durP1;ratioP1;P1;durP2;ratioP2;P2;SDS_P1;SDS_P2;PMS_P1;PMS_P2;Temp;Humidity;BMP_temperature;BMP_pressure;BME280_temperature;BME280_humidity;BME280_pressure;Samples;Min_cycle;Max_cycle;Signal;HPM_P1;HPM_P2
2022/11/23 00:01:27;;;;;;;4.82;3.88;;;;;;;8.80;59.02;92628.31;5078210;28;20127;-75
2022/11/23 00:03:54;;;;;;;7.75;4.57;;;;;;;8.71;58.97;92619.66;5079491;28;20040;-75
2022/11/23 00:06:21;;;;;;;14.10;5.60;;;;;;;8.87;58.68;92625.88;5080876;28;20531;-74
2022/11/23 00:08:47;;;;;;;7.60;5.45;;;;;;;8.73;58.62;92612.94;5076547;28;20474;-74
2022/11/23 00:11:13;;;;;;;6.50;3.45;;;;;;;8.79;58.42;92635.47;5082482;28;20110;-74
2022/11/23 00:13:39;;;;;;;4.63;2.85;;;;;;;8.65;58.65;92603.22;5074054;28;20031;-75
2022/11/23 00:16:11;;;;;;;4.05;2.70;;;;;;;8.79;58.79;92624.09;5078394;28;20039;-75
2022/11/23 00:18:36;;;;;;;6.15;3.65;;;;;;;8.52;58.86;92597.09;5077636;28;20056;-75
2022/11/23 00:21:06;;;;;;;8.52;5.60;;;;;;;8.64;59.05;92627.38;5077893;28;20124;-74
2022/11/23 00:23:32;;;;;;;13.52;7.32;;;;;;;8.22;59.70;92549.94;5079812;28;20032;-76
2022/11/23 00:25:57;;;;;;;10.43;4.65;;;;;;;8.68;59.52;92612.38;5077871;28;20102;-75
2022/11/23 00:28:23;;;;;;;6.88;4.47;;;;;;;8.62;59.38;92601.22;5078628;28;20029;-74
2022/11/23 00:30:49;;;;;;;7.32;4.13;;;;;;;8.73;59.56;92612.16;5081540;28;20040;-74
2022/11/23 00:33:15;;;;;;;4.43;3.20;;;;;;;8.72;59.31;92627.28;5077774;28;20028;-75
2022/11/23 00:35:41;;;;;;;4.53;3.03;;;;;;;8.50;60.05;92594.03;5078977;28;20388;-77
2022/11/23 00:38:06;;;;;;;4.50;2.65;;;;;;;8.76;59.85;92622.88;5081896;28;20036;-76
2022/11/23 00:40:31;;;;;;;5.05;4.25;;;;;;;8.66;60.10;92601.34;5082090;28;20100;-76
2022/11/23 00:42:57;;;;;;;5.88;3.22;;;;;;;8.71;60.20;92604.53;5080567;28;20025;-75
2022/11/23 00:45:22;;;;;;;5.20;3.83;;;;;;;8.68;60.25;92607.06;5084125;28;20126;-75
2022/11/23 00:47:47;;;;;;;5.22;3.38;;;;;;;8.81;60.50;92625.31;5078125;28;20070;-75
2022/11/23 00:50:13;;;;;;;4.22;3.05;;;;;;;8.65;60.51;92584.66;5080497;28;20484;-75
2022/11/23 00:52:38;;;;;;;3.75;3.28;;;;;;;8.82;60.47;92602.22;5077100;28;20998;-75
2022/11/23 00:55:04;;;;;;;5.22;3.35;;;;;;;8.91;60.65;92611.63;5080781;28;20063;-75
2022/11/23 00:57:29;;;;;;;3.63;3.03;;;;;;;8.90;60.71;92606.66;5080309;28;20025;-75
2022/11/23 00:59:55;;;;;;;3.22;2.67;;;;;;;8.97;60.72;92606.88;5080414;28;20049;-74
2022/11/23 01:02:20;;;;;;;3.80;3.10;;;;;;;8.79;60.94;92581.69;5079972;28;20421;-75
2022/11/23 01:04:45;;;;;;;7.03;4.63;;;;;;;8.85;61.36;92604.22;5079817;28;20176;-75
2022/11/23 01:07:11;;;;;;;8.52;3.50;;;;;;;8.89;61.48;92594.50;5077791;28;20389;-75
2022/11/23 01:09:36;;;;;;;5.45;3.35;;;;;;;8.87;61.52;92612.59;5078988;28;20542;-75
2022/11/23 01:12:01;;;;;;;5.38;3.90;;;;;;;8.93;61.30;92619.25;5078857;28;20028;-75
2022/11/23 01:14:27;;;;;;;7.00;3.25;;;;;;;8.85;61.50;92610.28;5079535;28;20024;-75
2022/11/23 01:16:52;;;;;;;5.28;2.13;;;;;;;8.70;61.67;92587.09;5079482;28;20408;-75
2022/11/23 01:19:19;;;;;;;5.20;2.05;;;;;;;8.81;62.32;92601.44;5077890;28;20591;-76
2022/11/23 01:21:44;;;;;;;2.35;2.10;;;;;;;8.66;62.37;92569.53;5080918;28;20035;-75
2022/11/23 01:24:15;;;;;;;2.03;1.65;;;;;;;8.75;61.99;92556.94;5076699;28;20119;-74
2022/11/23 01:26:43;;;;;;;3.30;2.03;;;;;;;8.81;62.04;92571.50;5079385;28;20332;-75
2022/11/23 01:29:08;;;;;;;2.38;1.55;;;;;;;8.95;61.74;92578.03;5078849;28;20028;-75
2022/11/23 01:31:34;;;;;;;2.42;1.88;;;;;;;8.90;61.86;92596.06;5075797;28;20832;-75
2022/11/23 01:34:01;;;;;;;8.90;5.63;;;;;;;8.74;62.06;92585.34;5086224;28;20044;-76
2022/11/23 01:36:31;;;;;;;2.60;2.28;;;;;;;8.93;61.76;92611.28;5079029;28;20111;-76
2022/11/23 01:38:58;;;;;;;2.65;2.20;;;;;;;9.00;61.54;92595.59;5078692;28;20028;-76
2022/11/23 01:41:35;;;;;;;3.42;3.13;;;;;;;9.02;61.58;92586.22;5096015;28;20070;-75
2022/11/23 01:44:20;;;;;;;3.50;1.75;;;;;;;9.01;61.92;92597.13;5080134;28;20060;-75
2022/11/23 01:46:45;;;;;;;2.50;1.60;;;;;;;8.81;62.25;92601.44;5077779;28;20036;-74
2022/11/23 01:49:10;;;;;;;10.27;7.05;;;;;;;8.69;63.10;92596.16;5079321;28;20107;-75
2022/11/23 01:51:44;;;;;;;2.53;2.33;;;;;;;8.73;62.82;92569.75;5074603;28;20964;-76
2022/11/23 01:54:16;;;;;;;2.35;1.40;;;;;;;8.93;62.25;92598.03;5076616;28;20012;-76
2022/11/23 01:56:46;;;;;;;1.25;1.15;;;;;;;8.90;62.65;92596.06;5084680;28;20031;-75
2022/11/23 01:59:15;;;;;;;4.07;1.80;;;;;;;8.84;62.89;92597.38;5074720;28;20024;-75
2022/11/23 02:01:42;;;;;;;4.22;2.08;;;;;;;8.97;62.47;92606.88;5071991;28;20036;-74
2022/11/23 02:04:13;;;;;;;3.55;2.00;;;;;;;8.48;64.00;92574.25;5075611;28;20036;-76
2022/11/23 02:06:39;;;;;;;3.58;2.38;;;;;;;8.28;65.39;92581.16;5083423;28;20387;-76
2022/11/23 02:09:06;;;;;;;3.28;2.08;;;;;;;8.42;64.80;92571.03;5076082;28;20529;-75
2022/11/23 02:11:32;;;;;;;2.55;2.10;;;;;;;8.63;64.24;92586.09;5076332;28;20029;-75
2022/11/23 02:13:59;;;;;;;3.03;2.38;;;;;;;8.70;64.17;92579.16;5073572;28;20387;-76
2022/11/23 02:16:24;;;;;;;5.05;2.65;;;;;;;8.71;64.08;92571.94;5074848;28;20081;-74
2022/11/23 02:18:52;;;;;;;3.70;3.03;;;;;;;8.63;63.84;92543.69;5076159;28;20032;-75
2022/11/23 02:21:17;;;;;;;4.40;2.53;;;;;;;8.17;65.33;92548.25;5091341;28;20044;-74
2022/11/23 02:24:01;;;;;;;3.45;2.88;;;;;;;8.43;64.91;92561.22;5074727;28;20615;-75
2022/11/23 02:26:29;;;;;;;3.40;2.90;;;;;;;8.40;64.43;92556.59;5076543;28;20051;-75
2022/11/23 02:28:58;;;;;;;3.55;2.25;;;;;;;8.21;65.41;92564.28;5075761;28;20048;-75
2022/11/23 02:31:24;;;;;;;2.80;2.05;;;;;;;8.18;65.02;92554.31;5083551;28;20032;-75
2022/11/23 02:33:49;;;;;;;2.60;1.73;;;;;;;8.04;65.15;92515.69;5077099;28;20405;-75
2022/11/23 02:36:27;;;;;;;5.28;3.50;;;;;;;8.30;64.63;92546.41;5078568;28;20055;-75
2022/11/23 02:38:54;;;;;;;6.07;4.45;;;;;;;8.01;65.40;92513.69;5075558;28;20182;-75
2022/11/23 02:41:20;;;;;;;7.00;4.82;;;;;;;8.12;65.75;92540.50;5073406;28;20032;-75
2022/11/23 02:43:50;;;;;;;8.23;4.90;;;;;;;8.04;65.38;92513.03;5078057;28;20037;-75
2022/11/23 02:46:16;;;;;;;8.05;4.45;;;;;;;8.32;64.87;92541.53;5073866;28;20793;-75
2022/11/23 02:48:41;;;;;;;5.95;4.10;;;;;;;7.94;64.59;92475.63;5079631;28;20037;-75
2022/11/23 02:51:07;;;;;;;6.45;4.85;;;;;;;8.29;64.72;92537.69;5072178;28;20240;-75
2022/11/23 02:53:32;;;;;;;7.10;4.32;;;;;;;8.23;64.53;92527.63;5072609;28;20539;-74
2022/11/23 02:55:57;;;;;;;5.65;4.20;;;;;;;8.32;64.41;92515.06;5072858;28;20104;-75
2022/11/23 02:58:23;;;;;;;5.35;4.30;;;;;;;8.39;64.24;92524.03;5074755;28;20531;-75
2022/11/23 03:00:48;;;;;;;4.88;4.35;;;;;;;8.46;63.83;92516.28;5073821;28;20028;-75
2022/11/23 03:03:13;;;;;;;5.75;4.32;;;;;;;8.42;63.71;92504.81;5076166;28;20074;-76
2022/11/23 03:05:39;;;;;;;7.85;4.90;;;;;;;8.45;63.21;92498.09;5074725;28;20074;-75
2022/11/23 03:08:05;;;;;;;5.68;4.35;;;;;;;8.69;62.90;92527.25;5075327;28;20044;-75
2022/11/23 03:10:30;;;;;;;6.32;4.18;;;;;;;8.41;63.16;92494.56;5074613;28;20031;-75
2022/11/23 03:12:56;;;;;;;7.70;4.10;;;;;;;8.65;62.78;92504.38;5075153;28;20040;-76
2022/11/23 03:15:22;;;;;;;7.07;4.38;;;;;;;8.68;62.40;92498.41;5074871;28;20473;-75
2022/11/23 03:17:48;;;;;;;7.75;4.60;;;;;;;8.75;62.42;92515.31;5081887;28;20074;-74
2022/11/23 03:20:14;;;;;;;6.18;4.03;;;;;;;8.70;61.96;92501.50;5076394;28;20040;-74
2022/11/23 03:22:39;;;;;;;5.30;4.10;;;;;;;8.57;62.07;92472.34;5073896;28;20399;-74
2022/11/23 03:25:05;;;;;;;7.07;3.97;;;;;;;8.78;61.65;92512.00;5074815;28;20104;-75
2022/11/23 03:27:32;;;;;;;6.85;4.35;;;;;;;8.72;61.60;92502.72;5075145;28;20059;-76
2022/11/23 03:29:58;;;;;;;5.30;4.18;;;;;;;8.70;61.59;92496.22;5077496;28;20046;-76
2022/11/23 03:32:23;;;;;;;7.03;4.80;;;;;;;8.68;61.56;92493.88;5074441;28;20032;-76
2022/11/23 03:34:49;;;;;;;6.00;4.80;;;;;;;8.71;61.58;92501.16;5073292;28;20360;-76
2022/11/23 03:37:14;;;;;;;6.53;4.50;;;;;;;8.77;61.38;92501.72;5078502;28;20071;-75
2022/11/23 03:39:39;;;;;;;5.85;3.90;;;;;;;8.44;61.78;92441.69;5083786;28;20124;-75
2022/11/23 03:42:05;;;;;;;6.10;3.92;;;;;;;8.73;61.13;92485.72;5076439;28;20476;-75
2022/11/23 03:44:30;;;;;;;7.35;4.05;;;;;;;8.65;60.96;92459.31;5076880;28;20112;-76
2022/11/23 03:46:58;;;;;;;8.38;4.70;;;;;;;8.81;60.86;92468.91;5078316;28;20036;-75
2022/11/23 03:49:24;;;;;;;8.27;4.82;;;;;;;8.63;60.93;92456.22;5076889;28;20028;-75
2022/11/23 03:51:49;;;;;;;9.00;5.50;;;;;;;8.62;60.69;92436.13;5078170;28;20439;-76
2022/11/23 03:54:14;;;;;;;9.35;6.63;;;;;;;8.59;60.42;92446.31;5082076;28;20046;-77
2022/11/23 03:56:40;;;;;;;8.10;5.40;;;;;;;8.73;60.36;92458.41;5080787;28;20115;-75
2022/11/23 03:59:05;;;;;;;7.00;5.78;;;;;;;8.63;60.74;92433.16;5081559;28;20028;-75
2022/11/23 04:01:31;;;;;;;6.38;4.82;;;;;;;8.63;60.33;92437.69;5081112;28;20093;-75
2022/11/23 04:03:56;;;;;;;9.50;5.45;;;;;;;8.69;60.60;92457.56;5082390;28;20032;-75
2022/11/23 04:06:21;;;;;;;8.20;5.78;;;;;;;8.77;60.48;92467.25;5087810;28;20118;-75
2022/11/23 04:08:47;;;;;;;7.40;4.00;;;;;;;8.63;60.22;92450.94;5078938;28;20372;-76
2022/11/23 04:11:12;;;;;;;17.95;11.90;;;;;;;8.20;60.41;92415.19;5081471;28;20043;-76
2022/11/23 04:13:37;;;;;;;11.55;5.75;;;;;;;8.63;60.79;92490.69;5078077;28;20029;-76
2022/11/23 04:16:03;;;;;;;8.70;5.75;;;;;;;8.45;61.55;92493.56;5079966;28;20024;-75
2022/11/23 04:18:29;;;;;;;12.63;7.35;;;;;;;8.39;61.69;92471.03;5080828;28;20017;-75
2022/11/23 04:20:54;;;;;;;16.67;8.70;;;;;;;8.41;62.04;92497.94;5078935;28;20538;-75
2022/11/23 04:23:19;;;;;;;52.72;23.67;;;;;;;8.24;62.32;92484.94;5080542;28;20036;-76
2022/11/23 04:25:45;;;;;;;17.25;9.20;;;;;;;8.35;62.29;92494.00;5079788;28;20049;-74
2022/11/23 04:28:10;;;;;;;10.38;7.43;;;;;;;8.39;62.28;92486.16;5079136;28;20025;-76
2022/11/23 04:30:36;;;;;;;9.63;5.45;;;;;;;8.25;61.79;92453.94;5083445;28;20020;-76
2022/11/23 04:33:01;;;;;;;12.55;6.57;;;;;;;8.33;61.95;92467.06;5076892;28;20089;-75
2022/11/23 04:35:26;;;;;;;14.82;8.73;;;;;;;8.23;62.50;92493.97;5080383;28;20047;-76
2022/11/23 04:37:52;;;;;;;12.25;8.13;;;;;;;8.15;62.86;92489.56;5078936;28;20036;-75
2022/11/23 04:40:17;;;;;;;27.85;14.38;;;;;;;8.11;63.34;92491.31;5079354;28;20028;-76
2022/11/23 04:42:43;;;;;;;33.42;15.68;;;;;;;7.76;64.17;92501.50;5080032;28;20484;-75
2022/11/23 04:45:10;;;;;;;9.38;5.85;;;;;;;7.61;65.41;92510.03;5083190;28;20070;-75
2022/11/23 04:47:35;;;;;;;7.75;4.90;;;;;;;7.53;65.33;92493.09;5078259;28;20035;-75
2022/11/23 04:50:01;;;;;;;6.75;5.07;;;;;;;7.66;65.17;92494.72;5082565;28;20516;-75
2022/11/23 04:52:26;;;;;;;8.90;5.00;;;;;;;7.58;65.09;92490.25;5080602;28;20030;-76
2022/11/23 04:54:51;;;;;;;10.02;6.43;;;;;;;7.58;65.19;92474.38;5088037;28;20102;-76
2022/11/23 04:57:17;;;;;;;11.02;6.15;;;;;;;7.75;64.87;92504.47;5081901;28;20343;-76
2022/11/23 04:59:42;;;;;;;8.25;6.10;;;;;;;7.69;65.30;92507.28;5077121;28;20401;-76
2022/11/23 05:02:08;;;;;;;14.27;8.70;;;;;;;7.93;65.10;92533.06;5078326;28;20032;-76
2022/11/23 05:04:33;;;;;;;9.93;7.47;;;;;;;7.78;64.66;92507.22;5076484;28;20062;-76
2022/11/23 05:06:58;;;;;;;13.50;8.38;;;;;;;7.91;64.59;92527.34;5079958;28;20475;-76
2022/11/23 05:09:24;;;;;;;15.15;8.50;;;;;;;7.98;64.53;92513.56;5079780;28;20020;-76
2022/11/23 05:11:49;;;;;;;15.80;8.27;;;;;;;8.21;63.88;92538.56;5080632;28;20668;-75
2022/11/23 05:14:15;;;;;;;11.88;7.93;;;;;;;8.12;64.09;92506.88;5077888;28;20032;-75
2022/11/23 05:16:40;;;;;;;13.93;7.75;;;;;;;8.18;63.89;92525.97;5078964;28;20036;-76
2022/11/23 05:19:05;;;;;;;26.63;15.10;;;;;;;8.16;63.97;92520.25;5078711;28;20040;-76
2022/11/23 05:21:31;;;;;;;35.03;20.52;;;;;;;8.25;64.30;92528.09;5079251;28;20037;-76
2022/11/23 05:23:56;;;;;;;17.77;10.93;;;;;;;8.02;64.12;92493.28;5080052;28;20070;-75
2022/11/23 05:26:21;;;;;;;14.68;10.00;;;;;;;8.14;64.44;92503.91;5079881;28;20029;-76
2022/11/23 05:28:47;;;;;;;12.48;8.90;;;;;;;8.04;64.25;92477.84;5077156;28;20040;-76
2022/11/23 05:31:12;;;;;;;12.45;9.27;;;;;;;8.11;64.00;92476.22;5077655;28;20032;-76
2022/11/23 05:33:38;;;;;;;15.32;9.50;;;;;;;8.19;64.12;92493.09;5078259;28;20017;-75
2022/11/23 05:36:04;;;;;;;31.35;18.55;;;;;;;8.24;64.58;92522.00;5080357;28;20017;-75
2022/11/23 05:38:29;;;;;;;15.20;10.13;;;;;;;8.13;64.57;92500.47;5078347;28;20044;-75
2022/11/23 05:40:54;;;;;;;15.60;10.63;;;;;;;8.18;64.50;92496.06;5079188;28;20048;-75
2022/11/23 05:43:20;;;;;;;21.13;15.10;;;;;;;8.15;64.68;92489.56;5075071;28;20037;-75
2022/11/23 05:45:45;;;;;;;25.17;17.88;;;;;;;8.25;64.48;92483.84;5077621;28;20571;-75
2022/11/23 05:48:10;;;;;;;18.48;12.52;;;;;;;8.38;64.20;92511.88;5076956;28;20031;-75
2022/11/23 05:50:36;;;;;;;25.02;15.25;;;;;;;8.31;64.15;92490.47;5078015;28;20044;-76
2022/11/23 05:53:01;;;;;;;22.05;15.13;;;;;;;8.34;63.82;92494.31;5077518;28;20039;-74
2022/11/23 05:55:27;;;;;;;25.52;16.95;;;;;;;8.20;64.41;92492.00;5074102;28;20033;-75
2022/11/23 05:57:52;;;;;;;19.45;13.73;;;;;;;8.28;63.98;92496.41;5074922;28;20740;-74
2022/11/23 06:00:19;;;;;;;17.45;12.40;;;;;;;8.19;64.30;92487.78;5076447;28;20510;-75
2022/11/23 06:02:44;;;;;;;18.35;12.00;;;;;;;8.21;64.90;92506.78;5078161;28;20033;-75
2022/11/23 06:05:10;;;;;;;16.73;11.52;;;;;;;8.37;64.71;92509.53;5079538;28;20316;-75
2022/11/23 06:07:36;;;;;;;15.57;10.85;;;;;;;8.37;64.27;92510.31;5080009;28;20539;-75
2022/11/23 06:10:03;;;;;;;16.58;11.13;;;;;;;8.15;64.76;92489.56;5093474;28;20214;-76
2022/11/23 06:12:29;;;;;;;23.88;14.98;;;;;;;8.32;64.65;92507.09;5077534;28;20320;-75
2022/11/23 06:14:54;;;;;;;31.05;18.60;;;;;;;8.50;64.64;92534.97;5078022;28;20125;-76
2022/11/23 06:17:20;;;;;;;20.65;14.20;;;;;;;8.56;64.59;92525.66;5074304;28;20795;-76
2022/11/23 06:19:45;;;;;;;15.70;11.82;;;;;;;8.22;65.51;92539.34;5073924;28;20057;-76
2022/11/23 06:22:11;;;;;;;13.10;10.00;;;;;;;8.02;66.88;92539.06;5071537;28;20403;-76
2022/11/23 06:24:36;;;;;;;14.13;9.30;;;;;;;8.07;66.90;92532.81;5056498;28;20044;-75
2022/11/23 06:27:02;;;;;;;12.80;7.93;;;;;;;8.16;66.57;92536.13;5075591;28;20077;-76
2022/11/23 06:29:27;;;;;;;10.60;7.32;;;;;;;8.09;66.63;92520.00;5076256;28;20528;-75
2022/11/23 06:31:53;;;;;;;7.75;5.90;;;;;;;8.21;66.45;92519.25;5074828;28;20223;-76
2022/11/23 06:34:19;;;;;;;12.23;8.15;;;;;;;8.28;66.18;92525.53;5076678;28;20036;-77
2022/11/23 06:36:44;;;;;;;16.58;9.18;;;;;;;8.34;66.34;92540.13;5075253;28;20039;-77
2022/11/23 06:39:10;;;;;;;14.93;10.50;;;;;;;8.07;67.40;92533.56;5076117;28;20012;-76
2022/11/23 06:41:35;;;;;;;13.70;9.77;;;;;;;8.07;67.73;92532.81;5072118;28;20522;-76
2022/11/23 06:44:00;;;;;;;12.73;9.68;;;;;;;8.22;67.76;92540.09;5073807;28;20105;-76
2022/11/23 06:46:26;;;;;;;17.40;11.25;;;;;;;8.24;67.24;92532.59;5073903;28;20032;-76
2022/11/23 06:48:51;;;;;;;19.58;12.07;;;;;;;8.11;67.72;92523.09;5076607;28;20564;-75
2022/11/23 06:51:17;;;;;;;17.92;12.98;;;;;;;8.23;68.14;92536.34;5077527;28;20020;-75
2022/11/23 06:53:42;;;;;;;15.18;10.90;;;;;;;8.34;68.34;92537.47;5073936;28;20518;-75
2022/11/23 06:56:08;;;;;;;15.93;11.57;;;;;;;8.39;67.66;92507.34;5074229;28;20056;-75
2022/11/23 06:58:34;;;;;;;17.85;12.25;;;;;;;8.45;67.49;92543.13;5081514;28;20037;-76
2022/11/23 07:01:01;;;;;;;19.60;12.77;;;;;;;8.35;67.83;92512.53;5077652;28;20024;-77
2022/11/23 07:03:27;;;;;;;19.17;12.93;;;;;;;8.44;67.37;92518.50;5078575;28;20028;-76
2022/11/23 07:05:53;;;;;;;17.75;11.57;;;;;;;8.42;67.75;92514.63;5076615;28;20020;-75
2022/11/23 07:08:18;;;;;;;19.10;12.90;;;;;;;8.41;67.90;92521.78;5075465;28;20036;-76
2022/11/23 07:10:44;;;;;;;20.55;13.43;;;;;;;8.48;67.91;92527.34;5074213;28;20040;-76
2022/11/23 07:13:10;;;;;;;18.02;13.32;;;;;;;8.39;67.83;92528.53;5081670;28;20633;-75
2022/11/23 07:15:37;;;;;;;18.52;12.88;;;;;;;8.46;68.19;92561.31;5079554;28;20516;-76
2022/11/23 07:18:03;;;;;;;33.72;16.95;;;;;;;8.55;68.36;92543.47;5078985;28;20024;-76
2022/11/23 07:20:28;;;;;;;19.60;14.23;;;;;;;8.46;68.17;92529.53;5077940;28;20508;-76
2022/11/23 07:23:10;;;;;;;15.63;10.93;;;;;;;8.55;67.77;92522.28;5077544;28;20051;-76
2022/11/23 07:25:36;;;;;;;16.58;10.07;;;;;;;8.50;67.96;92541.03;5076913;28;20058;-75
2022/11/23 07:28:04;;;;;;;16.30;12.60;;;;;;;8.24;67.45;92511.41;5082384;28;20035;-75
2022/11/23 07:30:31;;;;;;;18.20;11.07;;;;;;;8.70;67.26;92565.13;5081748;28;20488;-75
2022/11/23 07:33:04;;;;;;;22.33;12.15;;;;;;;8.73;67.01;92548.53;5084983;28;20535;-76
2022/11/23 07:35:31;;;;;;;20.55;12.68;;;;;;;8.79;66.84;92549.88;5082635;28;20058;-76
2022/11/23 07:37:58;;;;;;;18.48;11.75;;;;;;;8.85;66.81;92549.31;5096701;27;20380;-76
2022/11/23 07:40:23;;;;;;;16.92;13.05;;;;;;;8.94;66.53;92559.81;5082804;28;20029;-75
2022/11/23 07:42:49;;;;;;;17.90;13.55;;;;;;;8.89;66.20;92544.13;5080859;28;20032;-76
2022/11/23 07:45:14;;;;;;;16.73;11.93;;;;;;;8.87;65.81;92552.41;5080325;28;20617;-76
2022/11/23 07:47:40;;;;;;;20.63;12.48;;;;;;;8.49;67.34;92522.81;5079016;28;20408;-75
2022/11/23 07:50:06;;;;;;;17.15;12.02;;;;;;;8.72;67.98;92549.63;5082129;28;20028;-76
2022/11/23 07:52:34;;;;;;;18.95;12.52;;;;;;;8.58;67.39;92549.97;5079703;28;20523;-75
2022/11/23 07:54:59;;;;;;;20.77;14.48;;;;;;;8.58;67.42;92547.31;5090060;28;20036;-75
2022/11/23 07:57:25;;;;;;;29.35;15.38;;;;;;;8.58;67.60;92545.44;5080769;28;20936;-76
2022/11/23 07:59:50;;;;;;;26.15;14.55;;;;;;;8.65;67.24;92544.13;5081202;28;20051;-75
2022/11/23 08:02:16;;;;;;;21.95;14.60;;;;;;;8.45;68.11;92546.56;5080605;28;20093;-77
2022/11/23 08:04:41;;;;;;;22.40;13.70;;;;;;;8.24;68.53;92505.34;5081378;28;20042;-76
2022/11/23 08:07:07;;;;;;;16.85;10.93;;;;;;;8.50;68.15;92535.75;5096754;28;20090;-76
2022/11/23 08:09:32;;;;;;;15.88;11.82;;;;;;;8.44;68.28;92531.75;5082509;28;20024;-76
2022/11/23 08:11:57;;;;;;;10.05;7.75;;;;;;;8.42;68.72;92539.25;5082698;28;20031;-75
2022/11/23 08:14:23;;;;;;;12.07;8.65;;;;;;;8.48;68.78;92521.25;5082428;28;20035;-75
2022/11/23 08:16:49;;;;;;;13.65;9.00;;;;;;;8.69;68.83;92532.53;5082973;28;20071;-76
2022/11/23 08:19:15;;;;;;;19.23;10.80;;;;;;;8.66;68.92;92516.53;5081252;28;20032;-76
2022/11/23 08:21:41;;;;;;;20.10;12.43;;;;;;;8.63;69.13;92523.25;5081531;28;20040;-76
2022/11/23 08:24:06;;;;;;;19.50;10.85;;;;;;;8.62;69.29;92527.00;5084031;28;20101;-75
2022/11/23 08:26:32;;;;;;;24.58;11.73;;;;;;;8.66;68.88;92530.53;5082740;28;20024;-76
2022/11/23 08:28:57;;;;;;;20.65;14.00;;;;;;;8.35;68.96;92472.81;5080290;28;20036;-76
2022/11/23 08:31:23;;;;;;;26.27;13.00;;;;;;;8.65;69.63;92525.59;5045367;28;20036;-76
2022/11/23 08:33:49;;;;;;;18.65;13.20;;;;;;;8.67;69.76;92507.44;5082382;28;20033;-75
2022/11/23 08:36:14;;;;;;;25.42;14.80;;;;;;;8.71;69.57;92534.84;5079950;28;20514;-76
2022/11/23 08:38:40;;;;;;;22.63;13.05;;;;;;;8.71;69.21;92506.47;5080773;28;20037;-76
2022/11/23 08:41:05;;;;;;;16.40;12.15;;;;;;;8.52;68.57;92469.16;5082702;28;20036;-75
2022/11/23 08:43:31;;;;;;;17.05;11.07;;;;;;;8.58;69.84;92526.13;5083133;28;20478;-75
2022/11/23 08:45:57;;;;;;;20.83;11.95;;;;;;;8.81;68.65;92540.47;5079454;28;20147;-75
2022/11/23 08:48:23;;;;;;;14.75;10.82;;;;;;;8.85;68.14;92536.03;5080526;28;20497;-76
2022/11/23 08:50:48;;;;;;;16.90;11.52;;;;;;;8.57;70.01;92546.53;5081808;28;20975;-76
2022/11/23 08:53:13;;;;;;;19.98;13.43;;;;;;;8.37;72.19;92526.22;5080091;28;20513;-75
2022/11/23 08:55:39;;;;;;;20.20;13.48;;;;;;;8.20;72.88;92521.13;5082529;28;20461;-75
2022/11/23 08:58:06;;;;;;;20.15;14.38;;;;;;;8.55;72.25;92546.13;5082650;28;20032;-75
2022/11/23 09:00:31;;;;;;;20.13;14.07;;;;;;;8.45;71.70;92532.53;5083643;28;20046;-76
2022/11/23 09:02:57;;;;;;;22.27;13.93;;;;;;;8.27;72.15;92537.22;5084085;28;20620;-77
2022/11/23 09:05:23;;;;;;;20.88;13.55;;;;;;;8.46;71.78;92557.94;5090637;28;20514;-75
2022/11/23 09:07:49;;;;;;;21.65;13.77;;;;;;;8.52;71.09;92525.56;5081059;28;20037;-75
2022/11/23 09:10:15;;;;;;;25.13;15.73;;;;;;;8.66;71.34;92538.47;5082784;28;20036;-76
2022/11/23 09:12:40;;;;;;;25.65;15.63;;;;;;;8.81;70.56;92521.13;5081256;28;20048;-75
2022/11/23 09:15:06;;;;;;;21.10;13.88;;;;;;;9.10;70.29;92526.19;5081242;28;20028;-76
2022/11/23 09:17:31;;;;;;;25.08;16.08;;;;;;;9.08;70.34;92495.81;5077738;28;20041;-77
2022/11/23 09:19:57;;;;;;;23.67;14.88;;;;;;;9.47;70.04;92531.44;5079765;28;20047;-76
2022/11/23 09:22:23;;;;;;;23.40;15.00;;;;;;;9.50;69.22;92520.16;5078796;28;20123;-75
2022/11/23 09:24:48;;;;;;;21.15;14.43;;;;;;;9.53;69.07;92495.63;5078794;28;20037;-77
2022/11/23 09:27:13;;;;;;;14.45;12.07;;;;;;;9.81;67.02;92512.31;5083656;28;20066;-76
2022/11/23 09:29:39;;;;;;;20.92;12.68;;;;;;;9.76;68.02;92494.75;5080239;28;20055;-76
2022/11/23 09:32:04;;;;;;;21.88;14.02;;;;;;;9.97;67.41;92513.13;5076957;28;20041;-76
2022/11/23 09:34:29;;;;;;;23.70;13.95;;;;;;;9.66;66.42;92478.53;5081881;28;20397;-75
2022/11/23 09:36:58;;;;;;;19.52;13.40;;;;;;;9.78;65.80;92492.50;5080928;28;20047;-76
2022/11/23 09:39:24;;;;;;;18.73;10.88;;;;;;;9.85;64.56;92499.88;5079219;28;20024;-76
2022/11/23 09:42:08;;;;;;;14.57;10.40;;;;;;;9.74;65.04;92506.78;5077973;28;20024;-74
2022/11/23 09:44:39;;;;;;;14.48;10.23;;;;;;;9.69;65.98;92518.44;5088617;28;20033;-76
2022/11/23 09:47:16;;;;;;;17.38;11.95;;;;;;;9.88;66.16;92513.25;5082389;28;20151;-76
2022/11/23 09:49:51;;;;;;;22.80;12.90;;;;;;;9.45;65.45;92510.56;5078231;28;20032;-75
2022/11/23 09:52:21;;;;;;;19.02;11.80;;;;;;;9.42;65.93;92490.78;5078045;28;20100;-77
2022/11/23 09:54:51;;;;;;;16.42;12.10;;;;;;;9.54;67.12;92510.41;5081067;28;20028;-76
2022/11/23 09:57:23;;;;;;;16.67;11.30;;;;;;;9.75;66.86;92505.69;5080189;28;20377;-76
2022/11/23 10:00:00;;;;;;;16.58;10.10;;;;;;;9.98;65.43;92511.97;4966335;28;20065;-75
2022/11/23 10:02:30;;;;;;;12.38;8.48;;;;;;;10.06;64.12;92500.44;5043555;28;20036;-75
2022/11/23 10:04:58;;;;;;;14.38;10.00;;;;;;;10.11;63.57;92505.50;4993163;28;20047;-76
2022/11/23 10:07:34;;;;;;;18.60;10.13;;;;;;;10.25;62.70;92505.09;5011333;28;20033;-76
2022/11/23 10:10:14;;;;;;;13.15;9.63;;;;;;;10.32;62.09;92506.03;5087233;28;20028;-74
2022/11/23 10:12:53;;;;;;;16.00;10.60;;;;;;;10.42;63.48;92499.47;5076687;28;20028;-76
2022/11/23 10:15:40;;;;;;;14.93;10.35;;;;;;;10.51;62.57;92507.28;5077385;28;20710;-76
2022/11/23 10:18:30;;;;;;;16.13;11.05;;;;;;;10.37;63.82;92497.06;5077856;28;20113;-75
2022/11/23 10:20:55;;;;;;;16.48;10.27;;;;;;;10.21;63.06;92498.91;5093191;28;20059;-74
2022/11/23 10:23:30;;;;;;;14.95;9.85;;;;;;;10.04;63.53;92470.00;5077884;28;20036;-75
2022/11/23 10:25:56;;;;;;;;;;;;;;;10.35;63.59;92503.81;5080567;28;20050;-74
2022/11/23 10:28:23;;;;;;;15.50;9.77;;;;;;;10.49;63.34;92504.97;5077147;28;19979;-76
2022/11/23 10:31:03;;;;;;;14.60;9.27;;;;;;;10.46;62.96;92484.38;5077661;28;20477;-75
2022/11/23 10:33:44;;;;;;;14.02;9.07;;;;;;;10.73;63.29;92499.44;5084561;28;20047;-75
2022/11/23 10:36:12;;;;;;;12.98;8.93;;;;;;;10.85;61.75;92498.59;5079547;28;20042;-76
2022/11/23 10:38:38;;;;;;;14.73;9.07;;;;;;;10.50;62.07;92463.22;5078368;28;20649;-76
2022/11/23 10:41:09;;;;;;;16.80;9.27;;;;;;;10.83;62.71;92482.19;5075036;28;20082;-75
2022/11/23 10:43:40;;;;;;;13.18;10.00;;;;;;;11.01;62.32;92472.72;5074468;28;20035;-75
2022/11/23 10:46:30;;;;;;;9.70;6.63;;;;;;;11.04;61.44;92472.03;5079231;28;20044;-76
2022/11/23 10:49:07;;;;;;;8.00;5.80;;;;;;;10.91;60.55;92437.91;5077420;28;20087;-76
2022/11/23 10:51:33;;;;;;;8.50;4.88;;;;;;;11.30;58.63;92473.31;5079477;28;20036;-76
2022/11/23 10:54:16;;;;;;;4.97;1.90;;;;;;;11.17;55.71;92470.78;5076682;28;20440;-75
2022/11/23 10:56:52;;;;;;;2.17;1.00;;;;;;;11.12;53.58;92475.59;5074376;28;20514;-75
2022/11/23 10:59:37;;;;;;;0.93;0.70;;;;;;;10.91;52.55;92462.59;5079901;28;20155;-75
2022/11/23 11:02:19;;;;;;;4.95;0.88;;;;;;;10.86;53.06;92475.41;5083175;28;20535;-74
2022/11/23 11:04:48;;;;;;;10.63;6.75;;;;;;;10.85;59.02;92490.63;5074060;28;20155;-75
2022/11/23 11:07:28;;;;;;;12.43;8.15;;;;;;;10.86;61.99;92502.78;5077153;28;20619;-74
2022/11/23 11:10:01;;;;;;;15.50;9.60;;;;;;;10.52;62.88;92488.31;5077132;28;20041;-77
2022/11/23 11:12:28;;;;;;;14.95;9.40;;;;;;;10.33;62.12;92429.75;5076833;28;20038;-76
2022/11/23 11:15:10;;;;;;;20.55;11.25;;;;;;;10.73;62.63;92482.72;5078546;28;20055;-76
2022/11/23 11:17:38;;;;;;;14.38;7.10;;;;;;;10.79;63.61;92478.69;5078735;28;20059;-76
2022/11/23 11:20:26;;;;;;;7.30;5.50;;;;;;;10.61;61.19;92477.53;5074433;28;20082;-76
2022/11/23 11:22:53;;;;;;;6.78;3.05;;;;;;;10.62;57.13;92476.38;5076445;28;20068;-77
2022/11/23 11:25:38;;;;;;;5.72;3.80;;;;;;;10.77;59.33;92475.59;5076117;28;20048;-77
2022/11/23 11:28:23;;;;;;;3.25;2.95;;;;;;;10.58;56.73;92459.59;5077911;28;20073;-76
2022/11/23 11:30:58;;;;;;;2.85;1.67;;;;;;;10.81;54.92;92473.78;5074824;28;20041;-76
2022/11/23 11:33:39;;;;;;;0.70;0.68;;;;;;;10.67;50.22;92447.66;5073271;28;20024;-76